createdAt,value
2023-05-13T00:01:03.958Z,12.13
2023-05-13T00:03:33.308Z,12.24
2023-05-13T00:06:01.365Z,12.15
2023-05-13T00:08:28.893Z,12.25
2023-05-13T00:10:56.383Z,12.38
2023-05-13T00:13:23.857Z,12.38
2023-05-13T00:15:51.416Z,12.28
2023-05-13T00:18:18.944Z,12.25
2023-05-13T00:20:47.754Z,12.18
2023-05-13T00:23:15.445Z,12.06
2023-05-13T00:25:44.517Z,12.13
2023-05-13T00:28:13.978Z,12.19
2023-05-13T00:30:42.161Z,12.01
2023-05-13T00:33:10.396Z,12.05
2023-05-13T00:35:37.908Z,11.94
2023-05-13T00:38:07.887Z,12.04
2023-05-13T00:40:39.478Z,12.03
2023-05-13T00:43:07.108Z,11.92
2023-05-13T00:45:34.616Z,11.85
2023-05-13T00:48:02.210Z,11.88
2023-05-13T00:50:29.795Z,11.75
2023-05-13T00:52:58.426Z,11.57
2023-05-13T00:55:27.590Z,11.64
2023-05-13T00:57:55.070Z,11.72
2023-05-13T01:00:22.763Z,11.70
2023-05-13T01:02:54.975Z,11.72
2023-05-13T01:05:32.664Z,11.71
2023-05-13T01:08:03.865Z,11.81
2023-05-13T01:10:37.973Z,11.77
2023-05-13T01:13:09.879Z,11.75
2023-05-13T01:15:41.750Z,11.67
2023-05-13T01:18:14.641Z,11.79
2023-05-13T01:20:43.788Z,11.85
2023-05-13T01:23:13.504Z,11.91
2023-05-13T01:25:41.537Z,11.83
2023-05-13T01:28:10.016Z,11.78
2023-05-13T01:30:40.152Z,11.79
2023-05-13T01:33:09.674Z,11.81
2023-05-13T01:35:37.243Z,11.68
2023-05-13T01:38:05.740Z,11.44
2023-05-13T01:40:35.881Z,11.13
2023-05-13T01:43:06.212Z,11.06
2023-05-13T01:45:34.142Z,11.11
2023-05-13T01:48:02.547Z,11.32
2023-05-13T01:50:39.968Z,11.21
2023-05-13T01:53:07.862Z,11.19
2023-05-13T01:55:39.205Z,11.17
2023-05-13T01:58:06.862Z,11.14
2023-05-13T02:00:34.381Z,11.02
2023-05-13T02:03:01.907Z,10.98
2023-05-13T02:05:31.520Z,10.95
2023-05-13T02:07:59.300Z,11.22
2023-05-13T02:10:26.815Z,11.13
2023-05-13T02:12:55.705Z,11.03
2023-05-13T02:15:23.345Z,11.11
2023-05-13T02:17:51.018Z,11.12
2023-05-13T02:20:18.780Z,11.02
2023-05-13T02:22:46.480Z,11.01
2023-05-13T02:25:14.207Z,10.91
2023-05-13T02:27:41.774Z,11.04
2023-05-13T02:30:11.443Z,11.04
2023-05-13T02:32:42.598Z,10.88
2023-05-13T02:35:10.823Z,10.85
2023-05-13T02:37:38.459Z,10.88
2023-05-13T02:40:07.158Z,11.04
2023-05-13T02:42:34.649Z,10.97
2023-05-13T02:45:02.193Z,10.78
2023-05-13T02:47:34.311Z,10.70
2023-05-13T02:50:07.909Z,10.72
2023-05-13T02:52:36.105Z,10.95
2023-05-13T02:55:04.210Z,11.02
2023-05-13T02:57:31.780Z,10.80
2023-05-13T02:59:59.586Z,10.81
2023-05-13T03:02:28.027Z,10.68
2023-05-13T03:04:57.248Z,10.63
2023-05-13T03:07:24.853Z,10.34
2023-05-13T03:09:52.339Z,10.30
2023-05-13T03:12:19.933Z,10.43
2023-05-13T03:14:48.900Z,10.40
2023-05-13T03:17:16.558Z,10.57
2023-05-13T03:19:44.206Z,10.53
2023-05-13T03:22:13.093Z,10.60
2023-05-13T03:24:41.618Z,10.42
2023-05-13T03:27:09.960Z,10.40
2023-05-13T03:29:39.704Z,10.25
2023-05-13T03:32:08.295Z,10.25
2023-05-13T03:34:37.788Z,10.05
2023-05-13T03:37:05.791Z,10.09
2023-05-13T03:39:34.688Z,10.04
2023-05-13T03:42:02.793Z,10.18
2023-05-13T03:44:30.350Z,10.18
2023-05-13T03:46:57.846Z,10.06
2023-05-13T03:49:26.126Z,9.89
2023-05-13T03:51:53.595Z,9.93
2023-05-13T03:54:21.144Z,10.09
2023-05-13T03:56:50.023Z,10.19
2023-05-13T03:59:17.537Z,10.24
2023-05-13T04:01:45.132Z,10.12
2023-05-13T04:04:12.682Z,10.03
2023-05-13T04:06:40.259Z,9.81
2023-05-13T04:09:07.774Z,9.83
2023-05-13T04:11:36.228Z,9.89
2023-05-13T04:14:05.080Z,9.82
2023-05-13T04:16:36.051Z,9.72
2023-05-13T04:19:06.572Z,9.63
2023-05-13T04:21:34.092Z,9.45
2023-05-13T04:24:01.607Z,9.40
2023-05-13T04:26:29.175Z,9.23
2023-05-13T04:28:56.709Z,9.23
2023-05-13T04:31:25.903Z,9.26
2023-05-13T04:33:53.411Z,9.28
2023-05-13T04:36:20.985Z,9.32
2023-05-13T04:38:48.513Z,9.49
2023-05-13T04:41:17.419Z,9.58
2023-05-13T04:43:46.742Z,9.48
2023-05-13T04:46:14.394Z,9.49
2023-05-13T04:48:48.026Z,9.64
2023-05-13T04:51:16.501Z,9.82
2023-05-13T04:53:44.439Z,9.71
2023-05-13T04:56:12.616Z,9.59
2023-05-13T04:58:40.143Z,9.53
2023-05-13T05:01:08.786Z,9.57
2023-05-13T05:03:36.352Z,9.58
2023-05-13T05:06:06.692Z,9.75
2023-05-13T05:08:34.202Z,9.87
2023-05-13T05:11:01.890Z,9.79
2023-05-13T05:13:31.059Z,9.81
2023-05-13T05:15:58.671Z,9.94
2023-05-13T05:18:26.310Z,9.98
2023-05-13T05:20:53.908Z,9.87
2023-05-13T05:23:23.969Z,9.89
2023-05-13T05:26:03.967Z,9.88
2023-05-13T05:28:34.398Z,9.84
2023-05-13T05:31:02.031Z,9.91
2023-05-13T05:33:32.084Z,10.12
2023-05-13T05:36:00.368Z,10.18
2023-05-13T05:38:29.335Z,10.03
2023-05-13T05:40:58.936Z,10.14
2023-05-13T05:43:26.863Z,10.40
2023-05-13T05:45:54.443Z,10.30
2023-05-13T05:48:23.125Z,10.50
2023-05-13T05:50:51.056Z,10.49
2023-05-13T05:53:25.972Z,10.50
2023-05-13T05:55:54.812Z,10.53
2023-05-13T05:58:22.455Z,10.71
2023-05-13T06:00:51.853Z,10.95
2023-05-13T06:03:19.565Z,11.06
2023-05-13T06:05:47.364Z,11.14
2023-05-13T06:08:14.979Z,11.24
2023-05-13T06:10:42.560Z,11.35
2023-05-13T06:13:12.184Z,11.50
2023-05-13T06:15:39.847Z,11.64
2023-05-13T06:18:07.700Z,11.79
2023-05-13T06:20:35.676Z,11.88
2023-05-13T06:23:03.218Z,11.90
2023-05-13T06:25:30.802Z,12.00
2023-05-13T06:27:59.003Z,12.05
2023-05-13T06:30:29.176Z,12.07
2023-05-13T06:33:01.447Z,12.21
2023-05-13T06:35:30.924Z,12.32
2023-05-13T06:37:59.391Z,12.46
2023-05-13T06:40:27.155Z,12.62
2023-05-13T06:42:55.801Z,12.82
2023-05-13T06:45:31.149Z,13.06
2023-05-13T06:47:59.120Z,13.27
2023-05-13T06:50:26.696Z,13.45
2023-05-13T06:52:54.197Z,13.68
2023-05-13T06:55:21.760Z,13.86
2023-05-13T06:57:49.253Z,14.03
2023-05-13T07:00:17.759Z,14.15
2023-05-13T07:02:46.605Z,14.26
2023-05-13T07:05:14.152Z,14.38
2023-05-13T07:07:43.197Z,14.48
2023-05-13T07:10:11.341Z,14.64
2023-05-13T07:12:38.797Z,14.83
2023-05-13T07:15:07.758Z,14.95
2023-05-13T07:17:35.344Z,15.07
2023-05-13T07:20:04.526Z,15.19
2023-05-13T07:22:32.002Z,15.38
2023-05-13T07:24:59.589Z,15.30
2023-05-13T07:27:27.063Z,15.48
2023-05-13T07:29:55.240Z,15.61
2023-05-13T07:32:22.775Z,15.74
2023-05-13T07:34:51.123Z,15.86
2023-05-13T07:37:19.928Z,15.88
2023-05-13T07:39:47.431Z,16.19
2023-05-13T07:42:15.326Z,16.46
2023-05-13T07:44:42.781Z,16.39
2023-05-13T07:47:10.361Z,16.60
2023-05-13T07:49:37.966Z,16.81
2023-05-13T07:52:05.893Z,16.97
2023-05-13T07:54:34.717Z,17.09
2023-05-13T07:57:02.798Z,17.13
2023-05-13T07:59:30.413Z,17.30
2023-05-13T08:01:57.898Z,17.35
2023-05-13T08:04:26.010Z,17.39
2023-05-13T08:06:53.722Z,17.58
2023-05-13T08:09:21.207Z,17.65
2023-05-13T08:11:50.120Z,17.85
2023-05-13T08:14:17.660Z,17.97
2023-05-13T08:16:45.261Z,18.04
2023-05-13T08:19:15.127Z,18.11
2023-05-13T08:21:42.652Z,17.95
2023-05-13T08:24:10.232Z,18.17
2023-05-13T08:26:38.235Z,18.21
2023-05-13T08:29:07.646Z,18.37
2023-05-13T08:31:35.185Z,18.60
2023-05-13T08:34:02.858Z,18.74
2023-05-13T08:36:30.459Z,18.94
2023-05-13T08:38:58.018Z,18.96
2023-05-13T08:41:25.638Z,19.09
2023-05-13T08:43:53.239Z,19.21
2023-05-13T08:46:25.714Z,19.05
2023-05-13T08:48:54.936Z,19.14
2023-05-13T08:51:22.596Z,19.19
2023-05-13T08:53:50.807Z,19.10
2023-05-13T08:56:18.290Z,19.02
2023-05-13T08:58:45.863Z,19.06
2023-05-13T09:01:13.517Z,19.01
2023-05-13T09:03:51.283Z,19.00
2023-05-13T09:06:18.791Z,18.87
2023-05-13T09:08:46.377Z,18.77
2023-05-13T09:11:14.046Z,18.79
2023-05-13T09:13:42.674Z,18.65
2023-05-13T09:16:10.392Z,18.77
2023-05-13T09:18:38.738Z,18.73
2023-05-13T09:21:26.734Z,18.89
2023-05-13T09:23:57.838Z,18.94
2023-05-13T09:26:29.075Z,18.97
2023-05-13T09:29:18.294Z,19.03
2023-05-13T09:31:46.825Z,19.05
2023-05-13T09:34:14.371Z,19.01
2023-05-13T09:36:43.246Z,18.87
2023-05-13T09:39:12.510Z,18.88
2023-05-13T09:41:39.998Z,18.92
2023-05-13T09:44:09.126Z,18.94
2023-05-13T09:46:36.668Z,18.92
2023-05-13T09:49:05.694Z,18.82
2023-05-13T09:51:33.182Z,18.75
2023-05-13T09:54:06.925Z,18.47
2023-05-13T09:56:36.129Z,18.44
2023-05-13T09:59:04.574Z,18.22
2023-05-13T10:01:32.121Z,18.09
2023-05-13T10:03:59.861Z,18.10
2023-05-13T10:06:29.246Z,18.04
2023-05-13T10:08:59.573Z,18.00
2023-05-13T10:11:28.785Z,17.87
2023-05-13T10:14:00.045Z,17.77
2023-05-13T10:16:29.141Z,17.79
2023-05-13T10:18:58.291Z,17.74
2023-05-13T10:21:26.415Z,17.57
2023-05-13T10:23:54.217Z,17.48
2023-05-13T10:26:22.117Z,17.44
2023-05-13T10:28:51.646Z,17.43
2023-05-13T10:31:19.159Z,17.36
2023-05-13T10:33:46.800Z,17.32
2023-05-13T10:36:27.516Z,17.32
2023-05-13T10:39:07.504Z,17.27
2023-05-13T10:42:20.548Z,17.34
2023-05-13T10:44:54.606Z,17.30
2023-05-13T10:47:22.217Z,16.98
2023-05-13T10:49:52.018Z,16.74
2023-05-13T10:52:19.956Z,16.38
2023-05-13T10:55:02.346Z,16.45
2023-05-13T10:57:30.990Z,16.44
2023-05-13T11:00:16.447Z,16.34
2023-05-13T11:02:44.402Z,16.46
2023-05-13T11:05:20.316Z,16.43
2023-05-13T11:07:56.379Z,16.72
2023-05-13T11:10:27.458Z,16.85
2023-05-13T11:13:24.494Z,16.86
2023-05-13T11:15:54.826Z,16.99
2023-05-13T11:18:30.940Z,17.16
2023-05-13T11:21:05.207Z,17.33
2023-05-13T11:23:34.564Z,17.47
2023-05-13T11:26:14.104Z,17.49
2023-05-13T11:28:59.192Z,17.58
2023-05-13T11:31:29.899Z,17.67
2023-05-13T11:34:07.824Z,17.90
2023-05-13T11:36:35.987Z,17.99
2023-05-13T11:39:08.219Z,18.00
2023-05-13T11:41:36.454Z,17.88
2023-05-13T11:44:05.977Z,17.76
2023-05-13T11:46:34.912Z,17.87
2023-05-13T11:49:02.823Z,17.89
2023-05-13T11:51:31.956Z,18.00
2023-05-13T11:54:03.819Z,18.13
2023-05-13T11:56:31.767Z,18.30
2023-05-13T11:59:15.395Z,18.36
2023-05-13T12:01:44.806Z,18.34
2023-05-13T12:04:12.634Z,18.32
2023-05-13T12:06:45.733Z,18.12
2023-05-13T12:09:13.417Z,18.13
2023-05-13T12:11:41.566Z,18.22
2023-05-13T12:14:09.285Z,18.34
2023-05-13T12:16:37.037Z,17.93
2023-05-13T12:19:08.966Z,17.44
2023-05-13T12:21:37.407Z,17.39
2023-05-13T12:24:18.102Z,17.43
2023-05-13T12:26:45.629Z,17.16
2023-05-13T12:29:13.140Z,16.96
2023-05-13T12:31:42.565Z,17.03
2023-05-13T12:34:11.633Z,17.07
2023-05-13T12:36:40.059Z,17.09
2023-05-13T12:39:09.839Z,17.17
2023-05-13T12:41:38.863Z,17.24
2023-05-13T12:44:09.710Z,17.34
2023-05-13T12:46:38.060Z,17.52
2023-05-13T12:49:06.444Z,17.67
2023-05-13T12:51:35.414Z,17.78
2023-05-13T12:54:02.928Z,17.76
2023-05-13T12:56:30.445Z,17.74
2023-05-13T12:58:58.784Z,17.86
2023-05-13T13:01:26.309Z,17.84
2023-05-13T13:03:54.077Z,17.69
2023-05-13T13:06:21.886Z,17.62
2023-05-13T13:08:50.776Z,17.65
2023-05-13T13:11:19.332Z,17.75
2023-05-13T13:13:47.211Z,17.75
2023-05-13T13:16:14.828Z,17.45
2023-05-13T13:18:42.764Z,17.30
2023-05-13T13:21:11.053Z,17.11
2023-05-13T13:23:38.585Z,17.33
2023-05-13T13:26:07.450Z,17.47
2023-05-13T13:28:35.089Z,17.63
2023-05-13T13:31:02.552Z,17.68
2023-05-13T13:33:30.025Z,17.84
2023-05-13T13:35:57.520Z,18.00
2023-05-13T13:38:25.019Z,18.21
2023-05-13T13:40:52.499Z,18.21
2023-05-13T13:43:21.367Z,18.15
2023-05-13T13:45:48.908Z,18.19
2023-05-13T13:48:16.449Z,18.23
2023-05-13T13:50:45.408Z,18.27
2023-05-13T13:53:14.890Z,18.27
2023-05-13T13:55:42.362Z,18.32
2023-05-13T13:58:10.079Z,18.27
2023-05-13T14:00:38.872Z,18.32
2023-05-13T14:03:06.455Z,18.40
2023-05-13T14:05:34.041Z,18.42
2023-05-13T14:08:01.677Z,18.36
2023-05-13T14:10:29.146Z,18.36
2023-05-13T14:12:56.659Z,18.34
2023-05-13T14:15:28.527Z,18.33
2023-05-13T14:17:57.452Z,17.90
2023-05-13T14:20:25.572Z,17.64
2023-05-13T14:22:53.057Z,17.38
2023-05-13T14:25:20.631Z,17.19
2023-05-13T14:27:48.160Z,17.09
2023-05-13T14:30:15.803Z,16.91
2023-05-13T14:32:44.946Z,16.97
2023-05-13T14:35:14.454Z,17.12
2023-05-13T14:37:42.196Z,17.30
2023-05-13T14:40:10.571Z,17.40
2023-05-13T14:42:38.106Z,17.42
2023-05-13T14:45:06.485Z,17.57
2023-05-13T14:47:35.243Z,17.69
2023-05-13T14:50:02.853Z,17.71
2023-05-13T14:52:31.778Z,17.68
2023-05-13T14:54:59.226Z,17.61
2023-05-13T14:57:26.838Z,17.56
2023-05-13T14:59:54.330Z,17.47
2023-05-13T15:02:21.935Z,17.46
2023-05-13T15:04:49.585Z,17.48
2023-05-13T15:07:17.103Z,17.46
2023-05-13T15:09:45.969Z,17.40
2023-05-13T15:12:13.613Z,17.46
2023-05-13T15:14:41.059Z,17.48
2023-05-13T15:17:11.710Z,17.50
2023-05-13T15:19:39.407Z,17.56
2023-05-13T15:22:06.890Z,17.75
2023-05-13T15:24:34.477Z,17.98
2023-05-13T15:27:03.705Z,18.17
2023-05-13T15:29:31.242Z,18.28
2023-05-13T15:31:59.329Z,18.42
2023-05-13T15:34:26.829Z,18.39
2023-05-13T15:36:54.336Z,18.26
2023-05-13T15:39:22.009Z,18.17
2023-05-13T15:41:49.532Z,18.09
2023-05-13T15:44:18.400Z,18.07
2023-05-13T15:46:48.752Z,18.15
2023-05-13T15:49:17.653Z,18.05
2023-05-13T15:51:45.175Z,18.02
2023-05-13T15:54:12.695Z,17.88
2023-05-13T15:56:40.286Z,17.82
2023-05-13T15:59:07.849Z,17.69
2023-05-13T16:01:37.568Z,17.67
2023-05-13T16:04:05.298Z,17.66
2023-05-13T16:06:32.863Z,17.60
2023-05-13T16:09:01.885Z,17.55
2023-05-13T16:11:29.865Z,17.46
2023-05-13T16:13:57.424Z,17.51
2023-05-13T16:16:25.095Z,17.15
2023-05-13T16:18:54.029Z,17.10
2023-05-13T16:21:21.912Z,17.04
2023-05-13T16:23:50.966Z,16.87
2023-05-13T16:26:18.637Z,16.84
2023-05-13T16:28:46.162Z,16.83
2023-05-13T16:31:13.685Z,16.86
2023-05-13T16:33:41.256Z,16.89
2023-05-13T16:36:10.976Z,16.99
2023-05-13T16:38:41.144Z,17.00
2023-05-13T16:41:08.749Z,16.99
2023-05-13T16:43:36.431Z,16.86
2023-05-13T16:46:03.947Z,16.85
2023-05-13T16:48:31.485Z,16.89
2023-05-13T16:50:58.981Z,16.52
2023-05-13T16:53:27.943Z,16.41
2023-05-13T16:55:55.468Z,16.31
2023-05-13T16:58:22.971Z,16.17
2023-05-13T17:00:50.488Z,16.17
2023-05-13T17:03:18.129Z,16.18
2023-05-13T17:05:45.990Z,15.99
2023-05-13T17:08:13.466Z,16.00
2023-05-13T17:10:42.354Z,15.98
2023-05-13T17:13:09.829Z,15.83
2023-05-13T17:15:37.322Z,15.78
2023-05-13T17:18:05.046Z,15.60
2023-05-13T17:20:32.593Z,15.55
2023-05-13T17:23:00.097Z,15.62
2023-05-13T17:25:27.640Z,15.75
2023-05-13T17:27:56.464Z,15.80
2023-05-13T17:30:24.200Z,15.81
2023-05-13T17:32:51.916Z,15.89
2023-05-13T17:35:19.481Z,15.95
2023-05-13T17:37:46.985Z,15.97
2023-05-13T17:40:14.630Z,15.93
2023-05-13T17:42:42.136Z,15.88
2023-05-13T17:45:11.635Z,15.84
2023-05-13T17:47:39.306Z,15.79
2023-05-13T17:50:07.781Z,15.82
2023-05-13T17:52:35.340Z,15.85
2023-05-13T17:55:02.845Z,15.90
2023-05-13T17:57:31.887Z,15.87
2023-05-13T17:59:59.386Z,15.86
2023-05-13T18:02:28.232Z,15.63
2023-05-13T18:04:55.857Z,15.65
2023-05-13T18:07:23.345Z,15.50
2023-05-13T18:09:50.886Z,15.56
2023-05-13T18:12:18.364Z,15.49
2023-05-13T18:14:45.882Z,15.51
2023-05-13T18:17:13.406Z,15.34
2023-05-13T18:19:42.240Z,15.32
2023-05-13T18:22:09.775Z,15.32
2023-05-13T18:24:38.415Z,15.18
2023-05-13T18:27:06.368Z,15.17
2023-05-13T18:29:34.195Z,15.01
2023-05-13T18:32:01.915Z,14.97
2023-05-13T18:34:29.696Z,15.04
2023-05-13T18:36:58.581Z,15.01
2023-05-13T18:39:26.388Z,15.01
2023-05-13T18:41:53.840Z,15.03
2023-05-13T18:44:21.373Z,15.05
2023-05-13T18:46:48.976Z,15.08
2023-05-13T18:49:16.467Z,15.11
2023-05-13T18:51:45.248Z,15.05
2023-05-13T18:54:14.184Z,15.11
2023-05-13T18:56:42.049Z,15.06
2023-05-13T18:59:09.545Z,15.04
2023-05-13T19:01:37.202Z,15.00
2023-05-13T19:04:04.812Z,15.05
2023-05-13T19:06:33.253Z,15.07
2023-05-13T19:09:00.751Z,15.07
2023-05-13T19:11:29.590Z,15.10
2023-05-13T19:13:58.255Z,15.09
2023-05-13T19:16:26.027Z,15.13
2023-05-13T19:18:54.293Z,15.12
2023-05-13T19:21:23.269Z,15.13
2023-05-13T19:23:52.076Z,15.13
2023-05-13T19:26:21.518Z,15.15
2023-05-13T19:28:50.903Z,14.98
2023-05-13T19:31:18.977Z,15.01
2023-05-13T19:33:46.619Z,15.05
2023-05-13T19:36:14.158Z,15.07
2023-05-13T19:38:41.723Z,14.98
2023-05-13T19:41:09.267Z,15.03
2023-05-13T19:43:36.801Z,15.04
2023-05-13T19:46:05.755Z,15.06
2023-05-13T19:48:33.343Z,15.09
2023-05-13T19:51:00.850Z,14.96
2023-05-13T19:53:28.351Z,15.01
2023-05-13T19:55:56.660Z,15.04
2023-05-13T19:58:24.242Z,14.86
2023-05-13T20:00:51.743Z,14.78
2023-05-13T20:03:20.819Z,14.73
2023-05-13T20:05:49.134Z,14.72
2023-05-13T20:08:16.660Z,14.76
2023-05-13T20:10:44.192Z,14.83
2023-05-13T20:13:11.836Z,14.80
2023-05-13T20:15:39.317Z,14.75
2023-05-13T20:18:07.266Z,14.74
2023-05-13T20:20:36.110Z,14.76
2023-05-13T20:23:03.634Z,14.82
2023-05-13T20:25:31.124Z,14.80
2023-05-13T20:27:58.650Z,14.74
2023-05-13T20:30:26.296Z,14.75
2023-05-13T20:32:53.925Z,14.71
2023-05-13T20:35:21.957Z,14.68
2023-05-13T20:37:50.777Z,14.75
2023-05-13T20:40:18.255Z,14.76
2023-05-13T20:42:45.787Z,14.84
2023-05-13T20:45:13.481Z,14.68
2023-05-13T20:47:41.445Z,14.70
2023-05-13T20:50:09.911Z,14.66
2023-05-13T20:52:37.404Z,14.66
2023-05-13T20:55:07.509Z,14.54
2023-05-13T20:57:34.977Z,14.60
2023-05-13T21:00:02.475Z,14.58
2023-05-13T21:02:29.958Z,14.55
2023-05-13T21:04:57.523Z,14.59
2023-05-13T21:07:25.023Z,14.56
2023-05-13T21:09:52.496Z,14.54
2023-05-13T21:12:21.306Z,14.48
2023-05-13T21:14:51.776Z,14.39
2023-05-13T21:17:21.388Z,14.41
2023-05-13T21:19:49.147Z,14.33
2023-05-13T21:22:16.942Z,14.41
2023-05-13T21:24:44.406Z,14.31
2023-05-13T21:27:11.876Z,14.24
2023-05-13T21:29:40.897Z,14.35
2023-05-13T21:32:08.385Z,14.34
2023-05-13T21:34:36.153Z,14.35
2023-05-13T21:37:03.629Z,14.37
2023-05-13T21:39:31.126Z,14.41
2023-05-13T21:42:00.065Z,14.42
2023-05-13T21:44:28.878Z,14.33
2023-05-13T21:46:57.790Z,14.30
2023-05-13T21:49:25.308Z,14.26
2023-05-13T21:51:52.792Z,14.27
2023-05-13T21:54:20.473Z,14.24
2023-05-13T21:56:48.031Z,14.25
2023-05-13T21:59:15.541Z,14.25
2023-05-13T22:01:43.134Z,14.19
2023-05-13T22:04:11.992Z,14.10
2023-05-13T22:06:39.509Z,14.05
2023-05-13T22:09:07.073Z,13.99
2023-05-13T22:11:34.614Z,13.92
2023-05-13T22:14:02.105Z,13.99
2023-05-13T22:16:29.707Z,14.02
2023-05-13T22:18:59.692Z,13.98
2023-05-13T22:21:28.648Z,14.03
2023-05-13T22:23:56.139Z,13.98
2023-05-13T22:26:23.677Z,13.91
2023-05-13T22:28:51.244Z,13.88
2023-05-13T22:31:18.841Z,13.80
2023-05-13T22:33:46.575Z,13.61
2023-05-13T22:36:14.538Z,13.55
2023-05-13T22:38:43.839Z,13.47
2023-05-13T22:41:11.979Z,13.52
2023-05-13T22:43:39.532Z,13.48
2023-05-13T22:46:07.058Z,13.29
2023-05-13T22:48:34.641Z,13.32
2023-05-13T22:51:02.182Z,13.39
2023-05-13T22:53:29.688Z,13.41
2023-05-13T22:55:58.515Z,13.33
2023-05-13T22:58:25.997Z,13.20
2023-05-13T23:00:53.652Z,13.27
2023-05-13T23:03:21.343Z,13.22
2023-05-13T23:05:48.969Z,13.20
2023-05-13T23:08:16.456Z,13.20
2023-05-13T23:10:43.936Z,13.06
2023-05-13T23:13:12.761Z,12.97
2023-05-13T23:15:40.401Z,12.96
2023-05-13T23:18:08.035Z,12.97
2023-05-13T23:20:35.556Z,12.88
2023-05-13T23:23:03.041Z,12.78
2023-05-13T23:25:30.544Z,12.63
2023-05-13T23:27:58.025Z,12.74
2023-05-13T23:30:26.856Z,12.69
2023-05-13T23:32:54.357Z,12.49
2023-05-13T23:35:22.040Z,12.58
2023-05-13T23:37:50.600Z,12.52
2023-05-13T23:40:18.308Z,12.42
2023-05-13T23:42:45.804Z,12.32
2023-05-13T23:45:13.436Z,12.17
2023-05-13T23:47:42.421Z,12.01
2023-05-13T23:50:10.667Z,12.06
2023-05-13T23:52:38.243Z,11.96
2023-05-13T23:55:06.644Z,12.02
2023-05-13T23:57:34.473Z,11.94
